Time,TemperatureF,DewpointF,PressureIn,WindDirection,WindDirectionDegrees,WindSpeedMPH,WindSpeedGustMPH,Humidity,HourlyPrecipIn,Conditions,Clouds,dailyrainin,SoftwareType,DateUTC
2013-09-29 00:13:00,47.0,44.0,30.11,NNW,329,0.0,0.0,89,0.00,,,0.35,,2013-09-29 05:13:00,
2013-09-29 00:22:00,46.0,43.0,30.11,NNW,329,0.0,2.0,89,0.00,,,0.35,,2013-09-29 05:22:00,
2013-09-29 00:52:00,46.0,43.0,30.12,NNW,329,0.0,1.0,90,0.00,,,0.35,,2013-09-29 05:52:00,
2013-09-29 01:12:00,46.0,43.0,30.12,NNW,329,2.0,2.0,90,0.00,,,0.35,,2013-09-29 06:12:00,
2013-09-29 01:22:00,46.0,43.0,30.11,NNW,330,0.0,1.0,90,0.00,,,0.35,,2013-09-29 06:22:00,
2013-09-29 01:42:00,46.0,43.0,30.11,NNW,330,1.0,2.0,90,0.00,,,0.35,,2013-09-29 06:42:00,
2013-09-29 01:52:00,46.0,43.0,30.12,NNW,331,0.0,3.0,89,0.00,,,0.35,,2013-09-29 06:52:00,
2013-09-29 02:11:00,45.0,42.0,30.12,NNW,331,0.0,0.0,89,0.00,,,0.35,,2013-09-29 07:11:00,
2013-09-29 02:22:00,45.0,42.0,30.12,NNW,331,0.0,0.0,89,0.00,,,0.35,,2013-09-29 07:22:00,
2013-09-29 02:52:00,46.0,43.0,30.13,NNW,331,0.0,1.0,89,0.00,,,0.35,,2013-09-29 07:52:00,
2013-09-29 03:12:00,45.0,42.0,30.12,NNW,331,0.0,2.0,89,0.00,,,0.35,,2013-09-29 08:12:00,
2013-09-29 03:22:00,44.0,41.0,30.12,NNW,331,0.0,0.0,89,0.00,,,0.35,,2013-09-29 08:22:00,
2013-09-29 03:52:00,44.0,41.0,30.09,NNW,332,0.0,0.0,90,0.01,,,0.36,,2013-09-29 08:52:00,
2013-09-29 04:22:00,44.0,42.0,30.09,NNW,332,1.0,2.0,91,0.01,,,0.36,,2013-09-29 09:22:00,
2013-09-29 04:43:00,44.0,42.0,30.09,NNW,332,1.0,2.0,91,0.00,,,0.36,,2013-09-29 09:43:00,
2013-09-29 04:53:00,43.0,41.0,30.09,NNW,331,1.0,1.0,91,0.00,,,0.36,,2013-09-29 09:53:00,
2013-09-29 05:12:00,43.0,41.0,30.09,NNW,332,1.0,2.0,91,0.00,,,0.23,,2013-09-29 10:12:00,
2013-09-29 05:23:00,44.0,42.0,30.09,NNW,331,1.0,2.0,92,0.00,,,0.23,,2013-09-29 10:23:00,
2013-09-29 05:53:00,44.0,42.0,30.09,NNW,331,2.0,3.0,91,0.00,,,0.23,,2013-09-29 10:53:00,
2013-09-29 06:12:00,45.0,43.0,30.09,NNW,332,1.0,2.0,91,0.00,,,0.09,,2013-09-29 11:12:00,
2013-09-29 06:22:00,44.0,41.0,30.09,NNW,332,2.0,2.0,90,0.00,,,0.09,,2013-09-29 11:22:00,
2013-09-29 06:52:00,44.0,41.0,30.10,NNW,333,2.0,3.0,89,0.00,,,0.09,,2013-09-29 11:52:00,
2013-09-29 07:12:00,44.0,41.0,30.10,NNW,333,0.0,2.0,88,0.00,,,0.03,,2013-09-29 12:12:00,
2013-09-29 07:21:00,43.0,40.0,30.10,NNW,333,0.0,0.0,88,0.00,,,0.03,,2013-09-29 12:21:00,
2013-09-29 07:52:00,42.0,39.0,30.10,NNW,333,1.0,2.0,89,0.00,,,0.03,,2013-09-29 12:52:00,
2013-09-29 08:11:00,42.0,39.0,30.10,NNW,333,0.0,2.0,90,0.00,,,0.01,,2013-09-29 13:11:00,
2013-09-29 08:22:00,42.0,40.0,30.10,NNW,333,0.0,2.0,91,0.00,,,0.01,,2013-09-29 13:22:00,
2013-09-29 08:53:00,45.0,43.0,30.10,NNW,333,0.0,1.0,91,0.00,,,0.01,,2013-09-29 13:53:00,
2013-09-29 09:12:00,47.0,45.0,30.10,NNW,333,0.0,0.0,91,0.00,,,0.01,,2013-09-29 14:12:00,
2013-09-29 09:21:00,49.0,46.0,30.10,NNW,333,0.0,3.0,90,0.00,,,0.01,,2013-09-29 14:21:00,
2013-09-29 09:52:00,54.0,49.0,30.10,SSE,152,0.0,1.0,82,0.00,,,0.01,,2013-09-29 14:52:00,
2013-09-29 10:12:00,56.0,49.0,30.10,West,264,0.0,1.0,76,0.00,,,0.01,,2013-09-29 15:12:00,
2013-09-29 10:22:00,59.0,49.0,30.10,WNW,290,0.0,0.0,70,0.00,,,0.01,,2013-09-29 15:22:00,
2013-09-29 10:54:00,64.0,51.0,30.10,WSW,246,1.0,2.0,62,0.00,,,0.01,,2013-09-29 15:54:00,
2013-09-29 11:14:00,67.0,51.0,30.09,East,84,0.0,3.0,56,0.00,,,0.01,,2013-09-29 16:14:00,
2013-09-29 11:24:00,68.0,48.0,30.09,NE,42,0.0,3.0,49,0.00,,,0.01,,2013-09-29 16:24:00,
2013-09-29 11:44:00,70.0,48.0,30.09,South,173,0.0,4.0,46,0.00,,,0.01,,2013-09-29 16:44:00,
2013-09-29 11:54:00,71.0,50.0,30.08,South,180,0.0,4.0,47,0.00,,,0.01,,2013-09-29 16:54:00,
2013-09-29 12:12:00,72.0,46.0,30.08,SSE,159,4.0,7.0,40,0.00,,,0.01,,2013-09-29 17:12:00,
2013-09-29 12:24:00,73.0,48.0,30.07,SE,146,2.0,10.0,41,0.00,,,0.01,,2013-09-29 17:24:00,
2013-09-29 12:52:00,73.0,44.0,30.05,SSE,161,7.0,12.0,35,0.00,,,0.01,,2013-09-29 17:52:00,
2013-09-29 13:13:00,74.0,43.0,30.04,SSW,192,8.0,11.0,33,0.00,,,0.01,,2013-09-29 18:13:00,
2013-09-29 13:22:00,74.0,44.0,30.03,SE,141,3.0,12.0,34,0.00,,,0.01,,2013-09-29 18:22:00,
2013-09-29 14:11:00,75.0,43.0,30.01,SSE,151,3.0,10.0,32,0.00,,,0.01,,2013-09-29 19:11:00,
2013-09-29 14:52:00,76.0,43.0,29.98,SSE,167,9.0,13.0,31,0.00,,,0.01,,2013-09-29 19:52:00,
2013-09-29 15:12:00,76.0,44.0,29.97,SSE,149,0.0,12.0,32,0.00,,,0.01,,2013-09-29 20:12:00,
2013-09-29 15:22:00,77.0,43.0,29.96,SSW,192,3.0,10.0,30,0.00,,,0.01,,2013-09-29 20:22:00,
2013-09-29 15:52:00,77.0,44.0,29.95,South,171,8.0,13.0,31,0.00,,,0.01,,2013-09-29 20:52:00,
2013-09-29 16:11:00,77.0,45.0,29.94,South,180,4.0,10.0,32,0.00,,,0.01,,2013-09-29 21:11:00,
2013-09-29 16:21:00,78.0,43.0,29.93,SE,139,6.0,12.0,29,0.00,,,0.01,,2013-09-29 21:21:00,
2013-09-29 16:44:00,77.0,43.0,29.93,SSE,167,6.0,12.0,30,0.00,,,0.01,,2013-09-29 21:44:00,
2013-09-29 16:54:00,77.0,44.0,29.93,WSW,246,3.0,9.0,31,0.00,,,0.01,,2013-09-29 21:54:00,
2013-09-29 17:24:00,77.0,44.0,29.91,SSW,205,0.0,13.0,31,0.00,,,0.01,,2013-09-29 22:24:00,
2013-09-29 17:53:00,76.0,45.0,29.91,SSE,167,5.0,12.0,33,0.00,,,0.01,,2013-09-29 22:53:00,
2013-09-29 18:12:00,75.0,45.0,29.91,SSE,164,3.0,9.0,34,0.00,,,0.01,,2013-09-29 23:12:00,
2013-09-29 18:23:00,74.0,44.0,29.91,SSE,165,4.0,10.0,34,0.00,,,0.01,,2013-09-29 23:23:00,
2013-09-29 18:52:00,72.0,44.0,29.90,South,172,6.0,11.0,36,0.00,,,0.01,,2013-09-29 23:52:00,
2013-09-29 19:11:00,71.0,44.0,29.89,South,178,6.0,12.0,38,0.00,,,0.01,,2013-09-30 00:11:00,
2013-09-29 19:22:00,69.0,44.0,29.90,SSE,159,5.0,9.0,41,0.00,,,0.01,,2013-09-30 00:22:00,
2013-09-29 20:11:00,64.0,44.0,29.90,South,175,2.0,3.0,49,0.00,,,0.01,,2013-09-30 01:11:00,
2013-09-29 20:22:00,63.0,45.0,29.90,South,175,2.0,3.0,52,0.00,,,0.01,,2013-09-30 01:22:00,
2013-09-29 21:52:00,56.0,46.0,29.92,SSE,148,2.0,4.0,68,0.00,,,0.01,,2013-09-30 02:52:00,
2013-09-29 22:12:00,57.0,46.0,29.92,SSE,167,4.0,5.0,67,0.00,,,0.01,,2013-09-30 03:12:00,
2013-09-29 22:22:00,56.0,46.0,29.92,South,176,2.0,4.0,68,0.00,,,0.01,,2013-09-30 03:22:00,
2013-09-29 22:55:00,56.0,46.0,29.91,South,178,4.0,10.0,70,0.00,,,0.01,,2013-09-30 03:55:00,
2013-09-29 23:14:00,57.0,47.0,29.91,SSE,167,4.0,9.0,68,0.00,,,0.01,,2013-09-30 04:14:00,
2013-09-29 23:25:00,57.0,47.0,29.90,SSE,163,4.0,10.0,68,0.00,,,0.01,,2013-09-30 04:25:00,
2013-09-29 23:44:00,57.0,47.0,29.91,South,182,2.0,6.0,68,0.00,,,0.01,,2013-09-30 04:44:00,
2013-09-29 23:53:00,56.0,46.0,29.91,South,182,3.0,4.0,70,0.00,,,0.01,,2013-09-30 04:53:00,